Weather at Smith Airport

Public forecast

Using degrees Fahrenheit for public forecast. Weather courtesy of forecast.io.

Closest aviation weather report (METAR) to Smith Airport

Closest report is Niagara Falls International Airport, 6.0 nm (11.2 km) WNW.

2024/05/29 08:53 (retrieved 54 minutes ago)

KIAG 290853Z AUTO 26003KT 10SM OVC036 14/12 A2992 RMK AO2 RAE49 SLP135 P0021 60021 T01390122 53005

Closest aviation forecast (TAF) to Smith Airport

Closest forecast is Niagara Falls International Airport, 6.0 nm (11.2 km) WNW.

2024/05/29 06:42 (retrieved 3 hours ago)

TAF KIAG 290539Z 2906/3006 VRB03KT P6SM BKN035 FM290800 VRB03KT 4SM BR BKN020 FM291300 VRB03KT P6SM BKN035 FM291600 02006KT P6SM BKN040 FM291900 35007KT P6SM SCT050